createdAt,value
2017-09-28T00:01:53.254Z,15.30
2017-09-28T00:04:20.743Z,18.90
2017-09-28T00:06:48.214Z,16.07
2017-09-28T00:09:15.741Z,12.77
2017-09-28T00:11:43.229Z,14.37
2017-09-28T00:14:10.709Z,13.80
2017-09-28T00:16:38.205Z,13.40
2017-09-28T00:19:05.669Z,12.57
2017-09-28T00:21:33.223Z,16.63
2017-09-28T00:24:00.689Z,14.33
2017-09-28T00:26:28.319Z,13.00
2017-09-28T00:28:55.834Z,13.50
2017-09-28T00:31:23.289Z,12.87
2017-09-28T00:33:50.781Z,15.50
2017-09-28T00:36:18.238Z,13.60
2017-09-28T00:38:45.733Z,13.17
2017-09-28T00:41:13.200Z,13.80
2017-09-28T00:43:40.694Z,17.17
2017-09-28T00:46:08.193Z,17.53
2017-09-28T00:48:35.700Z,14.83
2017-09-28T00:51:03.192Z,18.30
2017-09-28T00:53:30.688Z,15.07
2017-09-28T00:55:58.176Z,14.37
2017-09-28T00:58:25.654Z,12.20
2017-09-28T01:00:53.159Z,14.23
2017-09-28T01:03:20.666Z,12.37
2017-09-28T01:05:48.161Z,12.60
2017-09-28T01:08:15.665Z,12.63
2017-09-28T01:10:43.152Z,11.83
2017-09-28T01:13:10.651Z,20.67
2017-09-28T01:15:38.119Z,13.37
2017-09-28T01:18:05.605Z,13.70
2017-09-28T01:20:33.064Z,15.63
2017-09-28T01:23:00.569Z,11.53
2017-09-28T01:25:28.054Z,12.70
2017-09-28T01:27:55.539Z,12.20
2017-09-28T01:30:23.051Z,12.10
2017-09-28T01:32:50.509Z,14.80
2017-09-28T01:35:18.021Z,14.30
2017-09-28T01:37:45.483Z,16.20
2017-09-28T01:40:13.010Z,15.67
2017-09-28T01:42:40.475Z,14.63
2017-09-28T01:45:07.992Z,12.60
2017-09-28T01:47:35.489Z,15.90
2017-09-28T01:50:02.982Z,16.00
2017-09-28T01:52:30.500Z,13.73
2017-09-28T01:54:57.966Z,14.73
2017-09-28T01:57:25.479Z,11.70
2017-09-28T01:59:52.962Z,11.17
2017-09-28T02:02:20.453Z,12.97
2017-09-28T02:04:47.961Z,13.10
2017-09-28T02:07:15.468Z,17.43
2017-09-28T02:09:42.951Z,12.63
2017-09-28T02:12:10.465Z,17.50
2017-09-28T02:14:37.979Z,13.33
2017-09-28T02:17:05.469Z,15.47
2017-09-28T02:19:32.957Z,17.30
2017-09-28T02:22:00.434Z,16.10
2017-09-28T02:24:27.950Z,12.97
2017-09-28T02:26:55.410Z,11.53
2017-09-28T02:29:22.898Z,13.60
2017-09-28T02:31:50.395Z,15.53
2017-09-28T02:34:17.901Z,10.97
2017-09-28T02:36:45.392Z,14.70
2017-09-28T02:39:12.883Z,13.03
2017-09-28T02:41:40.393Z,16.23
2017-09-28T02:44:07.870Z,12.13
2017-09-28T02:46:35.369Z,12.07
2017-09-28T02:49:02.919Z,13.27
2017-09-28T02:51:30.437Z,12.03
2017-09-28T02:53:57.915Z,13.87
2017-09-28T02:56:25.438Z,22.50
2017-09-28T02:58:52.923Z,11.43
2017-09-28T03:01:20.441Z,15.00
2017-09-28T03:03:47.982Z,10.30
2017-09-28T03:06:15.469Z,18.23
2017-09-28T03:08:42.997Z,12.33
2017-09-28T03:11:10.462Z,12.80
2017-09-28T03:13:37.943Z,10.73
2017-09-28T03:16:05.405Z,15.03
2017-09-28T03:18:32.914Z,17.67
2017-09-28T03:21:00.386Z,12.53
2017-09-28T03:23:27.881Z,15.40
2017-09-28T03:25:55.365Z,11.70
2017-09-28T03:28:22.856Z,12.80
2017-09-28T03:30:50.325Z,11.80
2017-09-28T03:33:17.798Z,11.97
2017-09-28T03:35:45.289Z,13.30
2017-09-28T03:38:12.744Z,19.13
2017-09-28T03:40:40.244Z,18.73
2017-09-28T03:43:07.697Z,14.37
2017-09-28T03:45:35.193Z,13.73
2017-09-28T03:48:02.684Z,14.23
2017-09-28T03:50:30.170Z,11.30
2017-09-28T03:52:57.626Z,13.60
2017-09-28T03:55:25.123Z,12.13
2017-09-28T03:57:52.600Z,11.27
2017-09-28T04:00:20.100Z,11.30
2017-09-28T04:02:47.580Z,12.60
2017-09-28T04:05:15.085Z,13.10
2017-09-28T04:07:42.601Z,13.30
2017-09-28T04:10:10.054Z,12.63
2017-09-28T04:12:37.564Z,14.97
2017-09-28T04:15:05.046Z,15.40
2017-09-28T04:17:32.612Z,18.03
2017-09-28T04:20:00.074Z,15.67
2017-09-28T04:22:27.580Z,15.80
2017-09-28T04:24:55.053Z,17.47
2017-09-28T04:27:22.920Z,13.13
2017-09-28T04:29:50.503Z,10.60
2017-09-28T04:32:17.969Z,13.03
2017-09-28T04:34:45.461Z,17.27
2017-09-28T04:37:12.935Z,15.43
2017-09-28T04:39:40.441Z,22.80
2017-09-28T04:42:07.908Z,15.20
2017-09-28T04:44:35.397Z,13.20
2017-09-28T04:47:02.913Z,20.57
2017-09-28T04:49:30.377Z,21.23
2017-09-28T04:51:57.877Z,18.43
2017-09-28T04:54:25.390Z,18.30
2017-09-28T04:56:52.882Z,14.20
2017-09-28T04:59:20.415Z,15.80
2017-09-28T05:01:47.925Z,15.87
2017-09-28T05:04:15.410Z,18.43
2017-09-28T05:06:42.897Z,12.70
2017-09-28T05:09:10.365Z,13.83
2017-09-28T05:11:38.008Z,18.97
2017-09-28T05:14:05.505Z,25.50
2017-09-28T05:16:33.836Z,18.83
2017-09-28T05:19:01.372Z,54.47
2017-09-28T05:21:28.861Z,34.20
2017-09-28T05:23:56.385Z,43.53
2017-09-28T05:26:23.860Z,29.43
2017-09-28T05:28:51.354Z,22.20
2017-09-28T05:31:18.825Z,17.37
2017-09-28T05:33:46.317Z,15.03
2017-09-28T05:36:13.795Z,13.97
2017-09-28T05:38:41.276Z,23.53
2017-09-28T05:41:08.826Z,12.83
2017-09-28T05:43:37.297Z,14.37
2017-09-28T05:46:04.789Z,14.27
2017-09-28T05:48:32.260Z,18.43
2017-09-28T05:50:59.778Z,14.00
2017-09-28T05:53:27.259Z,12.73
2017-09-28T05:55:54.763Z,13.13
2017-09-28T05:58:22.239Z,12.37
2017-09-28T06:00:49.836Z,14.07
2017-09-28T06:03:17.351Z,13.77
2017-09-28T06:05:44.837Z,16.67
2017-09-28T06:08:12.332Z,12.10
2017-09-28T06:10:40.000Z,13.67
2017-09-28T06:13:07.449Z,12.17
2017-09-28T06:15:34.940Z,29.07
2017-09-28T06:18:02.436Z,11.23
2017-09-28T06:20:29.922Z,15.20
2017-09-28T06:22:57.433Z,13.60
2017-09-28T06:25:24.921Z,18.93
2017-09-28T06:27:52.421Z,25.13
2017-09-28T06:30:19.900Z,30.60
2017-09-28T06:32:47.493Z,30.93
2017-09-28T06:35:14.991Z,36.10
2017-09-28T06:37:42.486Z,31.70
2017-09-28T06:40:10.022Z,34.47
2017-09-28T06:42:37.531Z,23.27
2017-09-28T06:45:05.049Z,22.37
2017-09-28T06:47:33.339Z,31.13
2017-09-28T06:50:00.845Z,27.60
2017-09-28T06:52:28.324Z,22.10
2017-09-28T06:54:55.820Z,29.97
2017-09-28T06:57:23.313Z,25.60
2017-09-28T06:59:50.823Z,17.73
2017-09-28T07:02:18.298Z,24.93
2017-09-28T07:04:45.796Z,15.90
2017-09-28T07:07:13.293Z,19.40
2017-09-28T07:09:40.801Z,19.67
2017-09-28T07:12:08.262Z,19.10
2017-09-28T07:14:35.778Z,22.13
2017-09-28T07:17:03.237Z,26.90
2017-09-28T07:19:30.973Z,22.13
2017-09-28T07:21:58.437Z,16.07
2017-09-28T07:24:25.923Z,11.77
2017-09-28T07:26:53.428Z,16.77
2017-09-28T07:29:20.938Z,18.03
2017-09-28T07:31:48.473Z,15.53
2017-09-28T07:34:15.970Z,16.67
2017-09-28T07:36:43.491Z,14.67
2017-09-28T07:39:10.979Z,15.90
2017-09-28T07:41:38.476Z,20.80
2017-09-28T07:44:05.978Z,16.53
2017-09-28T07:46:33.452Z,19.97
2017-09-28T07:49:00.975Z,27.50
2017-09-28T07:51:28.460Z,15.53
2017-09-28T07:53:56.131Z,18.77
2017-09-28T07:56:23.614Z,19.30
2017-09-28T07:58:51.093Z,21.50
2017-09-28T08:01:18.552Z,22.90
2017-09-28T08:03:46.057Z,18.00
2017-09-28T08:06:13.534Z,17.10
2017-09-28T08:08:41.066Z,18.10
2017-09-28T08:11:08.667Z,17.60
2017-09-28T08:13:36.785Z,17.43
2017-09-28T08:16:04.293Z,24.90
2017-09-28T08:18:31.856Z,20.80
2017-09-28T08:20:59.383Z,20.10
2017-09-28T08:23:26.861Z,19.20
2017-09-28T08:25:54.392Z,22.00
2017-09-28T08:28:21.853Z,28.73
2017-09-28T08:30:49.357Z,23.67
2017-09-28T08:33:16.814Z,20.93
2017-09-28T08:35:44.329Z,24.63
2017-09-28T08:38:12.185Z,21.23
2017-09-28T08:40:39.706Z,26.83
2017-09-28T08:43:07.196Z,21.93
2017-09-28T08:45:34.657Z,21.33
2017-09-28T08:48:02.172Z,28.10
2017-09-28T08:50:29.658Z,20.63
2017-09-28T08:52:57.139Z,19.30
2017-09-28T08:55:24.621Z,22.43
2017-09-28T08:57:52.118Z,20.60
2017-09-28T09:00:19.635Z,21.87
2017-09-28T09:02:47.557Z,20.60
2017-09-28T09:05:15.021Z,23.97
2017-09-28T09:07:42.511Z,30.43
2017-09-28T09:10:10.032Z,20.27
2017-09-28T09:12:37.490Z,24.83
2017-09-28T09:15:05.001Z,23.93
2017-09-28T09:17:32.474Z,20.03
2017-09-28T09:19:59.993Z,25.00
2017-09-28T09:22:27.489Z,28.77
2017-09-28T09:24:54.989Z,24.30
2017-09-28T09:27:22.474Z,25.77
2017-09-28T09:29:49.961Z,18.17
2017-09-28T09:32:17.482Z,19.47
2017-09-28T09:34:44.979Z,20.87
2017-09-28T09:37:12.468Z,23.30
2017-09-28T09:39:39.927Z,18.97
2017-09-28T09:42:07.451Z,22.77
2017-09-28T09:44:34.929Z,19.70
2017-09-28T09:47:02.474Z,18.97
2017-09-28T09:49:30.002Z,15.70
2017-09-28T09:51:57.481Z,17.60
2017-09-28T09:54:24.977Z,33.67
2017-09-28T09:56:52.448Z,16.90
2017-09-28T09:59:20.573Z,16.60
2017-09-28T10:01:48.040Z,13.43
2017-09-28T10:04:15.534Z,13.23
2017-09-28T10:06:50.456Z,13.50
2017-09-28T10:09:31.345Z,14.67
2017-09-28T10:12:13.048Z,7.67
2017-09-28T10:14:49.249Z,9.37
2017-09-28T10:17:16.709Z,7.93
2017-09-28T10:19:44.203Z,7.50
2017-09-28T10:22:11.715Z,9.30
2017-09-28T10:24:39.180Z,12.13
2017-09-28T10:27:06.658Z,8.23
2017-09-28T10:29:34.114Z,8.70
2017-09-28T10:32:01.593Z,16.23
2017-09-28T10:34:29.074Z,9.00
2017-09-28T10:36:56.516Z,8.00
2017-09-28T10:39:23.998Z,8.50
2017-09-28T10:41:51.454Z,8.17
2017-09-28T10:44:18.949Z,8.43
2017-09-28T10:46:46.473Z,9.40
2017-09-28T10:49:13.943Z,7.80
2017-09-28T10:51:41.434Z,8.30
2017-09-28T10:54:08.893Z,8.60
2017-09-28T10:56:36.400Z,9.77
2017-09-28T10:59:03.856Z,8.70
2017-09-28T11:01:31.344Z,9.90
2017-09-28T11:03:58.801Z,8.90
2017-09-28T11:06:26.289Z,11.77
2017-09-28T11:08:53.791Z,13.80
2017-09-28T11:11:21.289Z,9.60
2017-09-28T11:13:48.889Z,8.83
2017-09-28T11:16:16.412Z,9.33
2017-09-28T11:18:43.897Z,14.80
2017-09-28T11:21:11.358Z,8.73
2017-09-28T11:23:38.857Z,10.40
2017-09-28T11:26:06.308Z,8.77
2017-09-28T11:28:33.814Z,11.43
2017-09-28T11:31:01.317Z,9.63
2017-09-28T11:33:28.797Z,7.67
2017-09-28T11:35:56.380Z,12.90
2017-09-28T11:38:23.877Z,10.43
2017-09-28T11:40:51.344Z,16.67
2017-09-28T11:43:18.869Z,8.73
2017-09-28T11:45:46.362Z,8.23
2017-09-28T11:48:13.861Z,9.10
2017-09-28T11:50:41.480Z,11.63
2017-09-28T11:53:09.057Z,10.07
2017-09-28T11:55:36.540Z,9.13
2017-09-28T11:58:04.020Z,9.80
2017-09-28T12:00:31.545Z,7.90
2017-09-28T12:02:59.020Z,7.57
2017-09-28T12:05:26.532Z,13.13
2017-09-28T12:07:54.004Z,8.27
2017-09-28T12:10:21.495Z,9.23
2017-09-28T12:12:48.984Z,7.67
2017-09-28T12:15:16.483Z,8.00
2017-09-28T12:17:43.970Z,13.03
2017-09-28T12:20:12.275Z,9.70
2017-09-28T12:22:39.787Z,10.37
2017-09-28T12:25:07.339Z,12.97
2017-09-28T12:27:34.850Z,7.90
2017-09-28T12:30:02.382Z,9.50
2017-09-28T12:32:29.946Z,8.50
2017-09-28T12:34:57.489Z,8.90
2017-09-28T12:37:24.977Z,10.10
2017-09-28T12:39:52.483Z,9.30
2017-09-28T12:42:19.945Z,10.50
2017-09-28T12:44:47.437Z,8.40
2017-09-28T12:47:14.926Z,8.40
2017-09-28T12:49:42.440Z,8.27
2017-09-28T12:52:09.904Z,15.23
2017-09-28T12:54:37.358Z,7.73
2017-09-28T12:57:04.878Z,7.40
2017-09-28T12:59:32.353Z,10.93
2017-09-28T13:01:59.854Z,8.00
2017-09-28T13:04:27.325Z,10.30
2017-09-28T13:06:54.998Z,10.30
2017-09-28T13:09:22.505Z,11.87
2017-09-28T13:11:49.973Z,8.10
2017-09-28T13:14:17.448Z,7.73
2017-09-28T13:16:44.906Z,8.20
2017-09-28T13:19:12.391Z,7.80
2017-09-28T13:21:39.911Z,8.23
2017-09-28T13:24:07.486Z,8.27
2017-09-28T13:26:34.959Z,11.33
2017-09-28T13:29:02.441Z,8.53
2017-09-28T13:31:29.909Z,8.03
2017-09-28T13:33:57.423Z,9.63
2017-09-28T13:36:24.938Z,8.20
2017-09-28T13:38:52.432Z,8.90
2017-09-28T13:41:19.966Z,8.60
2017-09-28T13:43:48.248Z,7.40
2017-09-28T13:46:15.746Z,8.00
2017-09-28T13:48:43.225Z,10.43
2017-09-28T13:51:10.721Z,9.07
2017-09-28T13:53:38.253Z,8.30
2017-09-28T13:56:06.996Z,7.30
2017-09-28T13:58:34.497Z,7.37
2017-09-28T14:01:01.973Z,8.77
2017-09-28T14:03:29.497Z,9.20
2017-09-28T14:05:57.023Z,8.00
2017-09-28T14:08:24.519Z,12.13
2017-09-28T14:10:51.977Z,9.73
2017-09-28T14:13:19.702Z,8.80
2017-09-28T14:15:47.216Z,10.77
2017-09-28T14:18:14.721Z,7.30
2017-09-28T14:20:42.190Z,7.47
2017-09-28T14:23:09.700Z,7.53
2017-09-28T14:25:37.221Z,8.13
2017-09-28T14:28:04.678Z,6.53
2017-09-28T14:30:32.201Z,7.93
2017-09-28T14:33:00.425Z,14.47
2017-09-28T14:35:27.922Z,6.87
2017-09-28T14:37:55.426Z,7.93
2017-09-28T14:40:22.942Z,7.47
2017-09-28T14:42:50.424Z,9.40
2017-09-28T14:45:17.926Z,7.60
2017-09-28T14:47:45.419Z,7.50
2017-09-28T14:50:12.945Z,7.10
2017-09-28T14:52:40.416Z,7.70
2017-09-28T14:55:07.896Z,8.40
2017-09-28T14:57:35.433Z,18.03
2017-09-28T15:00:02.909Z,7.20
2017-09-28T15:02:30.408Z,7.40
2017-09-28T15:04:57.880Z,6.70
2017-09-28T15:07:25.523Z,7.53
2017-09-28T15:09:53.064Z,7.10
2017-09-28T15:12:21.533Z,13.00
2017-09-28T15:14:49.049Z,7.37
2017-09-28T15:17:16.509Z,8.77
2017-09-28T15:19:43.993Z,7.43
2017-09-28T15:22:11.445Z,7.27
2017-09-28T15:24:38.985Z,14.73
2017-09-28T15:27:06.473Z,7.60
2017-09-28T15:29:34.007Z,7.10
2017-09-28T15:32:01.516Z,7.57
2017-09-28T15:34:29.001Z,6.57
2017-09-28T15:36:56.494Z,6.97
2017-09-28T15:39:23.973Z,8.50
2017-09-28T15:41:51.460Z,9.77
2017-09-28T15:44:19.252Z,8.67
2017-09-28T15:46:46.721Z,9.57
2017-09-28T15:49:14.243Z,7.27
2017-09-28T15:51:41.710Z,13.63
2017-09-28T15:54:09.299Z,7.20
2017-09-28T15:56:36.789Z,8.17
2017-09-28T15:59:04.258Z,7.23
2017-09-28T16:01:31.754Z,8.30
2017-09-28T16:03:59.230Z,8.00
2017-09-28T16:06:26.739Z,6.30
2017-09-28T16:08:54.210Z,7.20
2017-09-28T16:11:21.785Z,7.30
2017-09-28T16:13:49.254Z,7.23
2017-09-28T16:16:16.753Z,8.20
2017-09-28T16:18:45.008Z,8.00
2017-09-28T16:21:12.818Z,7.33
2017-09-28T16:23:40.298Z,7.13
2017-09-28T16:26:07.828Z,7.30
2017-09-28T16:28:35.359Z,9.80
2017-09-28T16:31:02.866Z,7.50
2017-09-28T16:33:30.359Z,9.00
2017-09-28T16:35:57.852Z,11.10
2017-09-28T16:38:26.078Z,11.93
2017-09-28T16:40:53.624Z,11.43
2017-09-28T16:43:21.146Z,8.00
2017-09-28T16:45:48.683Z,7.13
2017-09-28T16:48:16.186Z,7.50
2017-09-28T16:50:43.690Z,10.67
2017-09-28T16:53:11.212Z,16.80
2017-09-28T16:55:38.730Z,9.70
2017-09-28T16:58:06.250Z,16.00
2017-09-28T17:00:33.868Z,8.33
2017-09-28T17:03:01.350Z,8.97
2017-09-28T17:05:29.039Z,22.50
2017-09-28T17:07:56.543Z,9.23
2017-09-28T17:10:24.061Z,9.33
2017-09-28T17:12:51.589Z,18.67
2017-09-28T17:15:19.110Z,14.07
2017-09-28T17:17:46.916Z,13.70
2017-09-28T17:20:14.450Z,11.83
2017-09-28T17:22:42.157Z,10.20
2017-09-28T17:25:10.882Z,11.33
2017-09-28T17:27:38.396Z,19.60
2017-09-28T17:30:05.959Z,15.70
2017-09-28T17:32:33.497Z,12.67
2017-09-28T17:35:01.032Z,8.67
2017-09-28T17:37:28.568Z,15.10
2017-09-28T17:39:56.887Z,8.47
2017-09-28T17:42:24.441Z,12.20
2017-09-28T17:44:51.958Z,10.23
2017-09-28T17:47:19.445Z,9.90
2017-09-28T17:49:47.001Z,12.80
2017-09-28T17:52:15.256Z,19.20
2017-09-28T17:54:42.803Z,19.43
2017-09-28T17:57:10.367Z,10.97
2017-09-28T17:59:37.868Z,18.07
2017-09-28T18:02:05.400Z,16.63
2017-09-28T18:04:32.924Z,14.87
2017-09-28T18:07:00.439Z,12.97
2017-09-28T18:09:28.827Z,9.53
2017-09-28T18:11:57.144Z,13.10
2017-09-28T18:14:25.051Z,9.97
2017-09-28T18:16:54.101Z,13.97
2017-09-28T18:19:21.638Z,8.90
2017-09-28T18:21:49.162Z,12.17
2017-09-28T18:24:17.647Z,9.40
2017-09-28T18:26:45.377Z,9.03
2017-09-28T18:29:13.696Z,11.10
2017-09-28T18:31:41.236Z,12.43
2017-09-28T18:34:09.666Z,9.13
2017-09-28T18:36:37.447Z,15.03
2017-09-28T18:39:05.516Z,14.60
2017-09-28T18:41:33.723Z,10.03
2017-09-28T18:44:01.754Z,11.13
2017-09-28T18:46:30.886Z,17.50
2017-09-28T18:48:58.994Z,12.30
2017-09-28T18:51:26.565Z,12.67
2017-09-28T18:53:54.126Z,10.70
2017-09-28T18:56:21.654Z,12.03
2017-09-28T18:58:50.322Z,23.43
2017-09-28T19:01:18.427Z,9.87
2017-09-28T19:03:46.366Z,12.07
2017-09-28T19:06:14.870Z,10.20
2017-09-28T19:08:43.580Z,14.90
2017-09-28T19:11:11.082Z,10.50
2017-09-28T19:13:39.690Z,13.47
2017-09-28T19:16:09.074Z,10.83
2017-09-28T19:18:36.590Z,14.60
2017-09-28T19:21:04.399Z,12.47
2017-09-28T19:23:31.918Z,11.33
2017-09-28T19:25:59.430Z,9.80
2017-09-28T19:28:27.020Z,14.33
2017-09-28T19:30:54.546Z,12.90
2017-09-28T19:33:22.179Z,14.27
2017-09-28T19:35:49.835Z,13.97
2017-09-28T19:38:19.234Z,13.73
2017-09-28T19:40:46.732Z,16.30
2017-09-28T19:43:14.805Z,13.60
2017-09-28T19:45:43.239Z,12.90
2017-09-28T19:48:11.716Z,17.43
2017-09-28T19:50:39.653Z,12.30
2017-09-28T19:53:07.951Z,18.30
2017-09-28T19:55:35.516Z,16.50
2017-09-28T19:58:03.094Z,11.47
2017-09-28T20:00:32.732Z,13.57
2017-09-28T20:03:00.265Z,9.93
2017-09-28T20:05:27.783Z,10.43
2017-09-28T20:07:55.469Z,16.00
2017-09-28T20:10:23.016Z,10.23
2017-09-28T20:12:52.484Z,14.20
2017-09-28T20:15:20.067Z,11.70
2017-09-28T20:17:47.585Z,12.63
2017-09-28T20:20:15.724Z,15.43
2017-09-28T20:22:44.000Z,15.37
2017-09-28T20:25:11.619Z,16.57
2017-09-28T20:27:39.980Z,11.77
2017-09-28T20:30:07.583Z,11.83
2017-09-28T20:32:35.126Z,11.13
2017-09-28T20:35:02.662Z,9.77
2017-09-28T20:37:30.213Z,12.57
2017-09-28T20:39:57.754Z,10.33
2017-09-28T20:42:25.266Z,14.00
2017-09-28T20:44:53.079Z,11.60
2017-09-28T20:47:20.882Z,14.00
2017-09-28T20:49:48.375Z,10.53
2017-09-28T20:52:15.912Z,9.80
2017-09-28T20:54:43.432Z,18.07
2017-09-28T20:57:10.964Z,10.27
2017-09-28T20:59:38.467Z,13.80
2017-09-28T21:02:06.019Z,10.47
2017-09-28T21:04:33.514Z,11.93
2017-09-28T21:07:01.071Z,13.50
2017-09-28T21:09:28.886Z,11.70
2017-09-28T21:11:56.422Z,15.57
2017-09-28T21:14:23.921Z,13.00
2017-09-28T21:16:52.232Z,23.57
2017-09-28T21:19:19.752Z,29.13
2017-09-28T21:21:47.282Z,25.80
2017-09-28T21:24:14.801Z,15.00
2017-09-28T21:26:42.313Z,12.60
2017-09-28T21:29:09.848Z,12.57
2017-09-28T21:31:37.398Z,12.53
2017-09-28T21:34:04.955Z,13.53
2017-09-28T21:36:32.447Z,16.50
2017-09-28T21:38:59.950Z,17.70
2017-09-28T21:41:27.424Z,14.13
2017-09-28T21:43:54.974Z,13.47
2017-09-28T21:46:22.440Z,12.03
2017-09-28T21:48:49.936Z,13.40
2017-09-28T21:51:17.451Z,40.77
2017-09-28T21:53:44.940Z,18.23
2017-09-28T21:56:12.441Z,11.00
2017-09-28T21:58:39.916Z,10.30
2017-09-28T22:01:07.405Z,12.67
2017-09-28T22:03:34.902Z,10.90
2017-09-28T22:06:02.360Z,14.27
2017-09-28T22:08:29.867Z,11.00
2017-09-28T22:10:57.340Z,15.13
2017-09-28T22:13:24.838Z,15.63
2017-09-28T22:15:52.323Z,16.40
2017-09-28T22:18:19.813Z,11.03
2017-09-28T22:20:47.275Z,14.40
2017-09-28T22:23:15.081Z,12.73
2017-09-28T22:25:42.538Z,11.33
2017-09-28T22:28:10.038Z,13.93
2017-09-28T22:30:37.546Z,10.90
2017-09-28T22:33:05.000Z,13.70
2017-09-28T22:35:32.482Z,12.63
2017-09-28T22:37:59.975Z,11.50
2017-09-28T22:40:27.481Z,10.20
2017-09-28T22:42:54.938Z,11.73
2017-09-28T22:45:22.591Z,16.40
2017-09-28T22:47:50.056Z,12.13
2017-09-28T22:50:17.514Z,10.00
2017-09-28T22:52:45.005Z,11.70
2017-09-28T22:55:12.464Z,13.60
2017-09-28T22:57:39.949Z,12.40
2017-09-28T23:00:07.397Z,16.10
2017-09-28T23:02:35.336Z,11.83
2017-09-28T23:05:02.803Z,10.60
2017-09-28T23:07:30.284Z,12.23
2017-09-28T23:09:57.771Z,10.53
2017-09-28T23:12:25.237Z,11.90
2017-09-28T23:14:52.851Z,9.90
2017-09-28T23:17:20.318Z,9.67
2017-09-28T23:19:47.821Z,10.90
2017-09-28T23:22:15.304Z,13.30
2017-09-28T23:24:42.784Z,9.53
2017-09-28T23:27:10.253Z,12.00
2017-09-28T23:29:37.750Z,11.23
2017-09-28T23:32:05.230Z,10.27
2017-09-28T23:34:32.716Z,13.37
2017-09-28T23:37:00.212Z,14.73
2017-09-28T23:39:27.722Z,12.87
2017-09-28T23:41:55.211Z,8.57
2017-09-28T23:44:22.723Z,11.10
2017-09-28T23:46:50.179Z,9.13
2017-09-28T23:49:17.662Z,9.53
2017-09-28T23:51:45.139Z,9.97
2017-09-28T23:54:12.607Z,8.77
2017-09-28T23:56:40.089Z,10.33
2017-09-28T23:59:07.567Z,9.87
